sensor_id;sensor_type;location;lat;lon;timestamp;P1;durP1;ratioP1;P2;durP2;ratioP2
6133;SDS011;3098;42.678;23.364;2023-07-08T00:02:10;19.10;;;11.10;;
6133;SDS011;3098;42.678;23.364;2023-07-08T00:04:39;17.60;;;10.63;;
6133;SDS011;3098;42.678;23.364;2023-07-08T00:07:08;18.17;;;11.48;;
6133;SDS011;3098;42.678;23.364;2023-07-08T00:09:38;20.63;;;11.85;;
6133;SDS011;3098;42.678;23.364;2023-07-08T00:12:07;18.45;;;11.68;;
6133;SDS011;3098;42.678;23.364;2023-07-08T00:14:36;20.65;;;12.20;;
6133;SDS011;3098;42.678;23.364;2023-07-08T00:17:04;17.75;;;11.05;;
6133;SDS011;3098;42.678;23.364;2023-07-08T00:19:36;20.38;;;12.48;;
6133;SDS011;3098;42.678;23.364;2023-07-08T00:22:08;19.67;;;12.13;;
6133;SDS011;3098;42.678;23.364;2023-07-08T00:24:39;21.02;;;12.88;;
6133;SDS011;3098;42.678;23.364;2023-07-08T00:27:08;19.52;;;12.40;;
6133;SDS011;3098;42.678;23.364;2023-07-08T00:29:36;18.92;;;12.32;;
6133;SDS011;3098;42.678;23.364;2023-07-08T00:32:07;19.77;;;12.40;;
6133;SDS011;3098;42.678;23.364;2023-07-08T00:34:36;20.58;;;12.70;;
6133;SDS011;3098;42.678;23.364;2023-07-08T00:37:03;18.10;;;11.93;;
6133;SDS011;3098;42.678;23.364;2023-07-08T00:39:32;19.40;;;12.07;;
6133;SDS011;3098;42.678;23.364;2023-07-08T00:41:59;21.45;;;12.77;;
6133;SDS011;3098;42.678;23.364;2023-07-08T00:44:28;20.42;;;12.93;;
6133;SDS011;3098;42.678;23.364;2023-07-08T00:46:57;23.02;;;13.50;;
6133;SDS011;3098;42.678;23.364;2023-07-08T00:49:31;22.98;;;13.00;;
6133;SDS011;3098;42.678;23.364;2023-07-08T00:52:16;21.17;;;12.05;;
6133;SDS011;3098;42.678;23.364;2023-07-08T00:54:46;18.17;;;12.23;;
6133;SDS011;3098;42.678;23.364;2023-07-08T00:57:16;21.05;;;12.90;;
6133;SDS011;3098;42.678;23.364;2023-07-08T00:59:44;20.05;;;12.05;;
6133;SDS011;3098;42.678;23.364;2023-07-08T01:02:14;16.10;;;11.98;;
6133;SDS011;3098;42.678;23.364;2023-07-08T01:04:47;19.35;;;12.25;;
6133;SDS011;3098;42.678;23.364;2023-07-08T01:07:17;18.35;;;11.57;;
6133;SDS011;3098;42.678;23.364;2023-07-08T01:09:48;19.25;;;12.00;;
6133;SDS011;3098;42.678;23.364;2023-07-08T01:12:21;21.15;;;12.07;;
6133;SDS011;3098;42.678;23.364;2023-07-08T01:14:53;20.48;;;13.48;;
6133;SDS011;3098;42.678;23.364;2023-07-08T01:17:21;18.67;;;12.43;;
6133;SDS011;3098;42.678;23.364;2023-07-08T01:19:49;26.80;;;11.30;;
6133;SDS011;3098;42.678;23.364;2023-07-08T01:22:22;20.67;;;12.35;;
6133;SDS011;3098;42.678;23.364;2023-07-08T01:24:48;19.98;;;12.43;;
6133;SDS011;3098;42.678;23.364;2023-07-08T01:27:16;17.80;;;11.82;;
6133;SDS011;3098;42.678;23.364;2023-07-08T01:29:45;20.90;;;12.10;;
6133;SDS011;3098;42.678;23.364;2023-07-08T01:32:13;19.88;;;11.85;;
6133;SDS011;3098;42.678;23.364;2023-07-08T01:34:43;20.58;;;12.38;;
6133;SDS011;3098;42.678;23.364;2023-07-08T01:37:27;17.65;;;10.95;;
6133;SDS011;3098;42.678;23.364;2023-07-08T01:39:57;20.20;;;11.82;;
6133;SDS011;3098;42.678;23.364;2023-07-08T01:42:39;17.17;;;11.57;;
6133;SDS011;3098;42.678;23.364;2023-07-08T01:45:09;19.83;;;12.15;;
6133;SDS011;3098;42.678;23.364;2023-07-08T01:47:37;19.38;;;11.32;;
6133;SDS011;3098;42.678;23.364;2023-07-08T01:50:06;20.25;;;11.40;;
6133;SDS011;3098;42.678;23.364;2023-07-08T01:52:37;17.90;;;11.40;;
6133;SDS011;3098;42.678;23.364;2023-07-08T01:55:05;20.65;;;12.10;;
6133;SDS011;3098;42.678;23.364;2023-07-08T01:57:32;19.35;;;11.73;;
6133;SDS011;3098;42.678;23.364;2023-07-08T01:59:59;18.73;;;11.27;;
6133;SDS011;3098;42.678;23.364;2023-07-08T02:02:26;20.00;;;11.30;;
6133;SDS011;3098;42.678;23.364;2023-07-08T02:04:53;20.38;;;11.60;;
6133;SDS011;3098;42.678;23.364;2023-07-08T02:07:20;20.80;;;12.15;;
6133;SDS011;3098;42.678;23.364;2023-07-08T02:09:48;20.83;;;12.52;;
6133;SDS011;3098;42.678;23.364;2023-07-08T02:12:15;16.58;;;11.57;;
6133;SDS011;3098;42.678;23.364;2023-07-08T02:14:42;18.67;;;12.77;;
6133;SDS011;3098;42.678;23.364;2023-07-08T02:17:09;20.17;;;11.73;;
6133;SDS011;3098;42.678;23.364;2023-07-08T02:19:36;17.50;;;11.18;;
6133;SDS011;3098;42.678;23.364;2023-07-08T02:22:03;17.55;;;11.00;;
6133;SDS011;3098;42.678;23.364;2023-07-08T02:24:30;17.42;;;11.43;;
6133;SDS011;3098;42.678;23.364;2023-07-08T02:26:59;21.27;;;12.18;;
6133;SDS011;3098;42.678;23.364;2023-07-08T02:29:26;18.27;;;11.07;;
6133;SDS011;3098;42.678;23.364;2023-07-08T02:31:53;18.33;;;11.40;;
6133;SDS011;3098;42.678;23.364;2023-07-08T02:34:20;17.92;;;10.40;;
6133;SDS011;3098;42.678;23.364;2023-07-08T02:36:47;16.33;;;10.40;;
6133;SDS011;3098;42.678;23.364;2023-07-08T02:39:14;16.08;;;10.98;;
6133;SDS011;3098;42.678;23.364;2023-07-08T02:41:41;16.20;;;11.07;;
6133;SDS011;3098;42.678;23.364;2023-07-08T02:44:09;14.93;;;10.02;;
6133;SDS011;3098;42.678;23.364;2023-07-08T02:46:36;18.65;;;10.07;;
6133;SDS011;3098;42.678;23.364;2023-07-08T02:49:03;15.65;;;10.52;;
6133;SDS011;3098;42.678;23.364;2023-07-08T02:51:30;18.75;;;11.20;;
6133;SDS011;3098;42.678;23.364;2023-07-08T02:53:57;17.48;;;10.35;;
6133;SDS011;3098;42.678;23.364;2023-07-08T02:56:24;16.65;;;11.52;;
6133;SDS011;3098;42.678;23.364;2023-07-08T02:58:51;16.10;;;10.05;;
6133;SDS011;3098;42.678;23.364;2023-07-08T03:01:20;16.20;;;10.40;;
6133;SDS011;3098;42.678;23.364;2023-07-08T03:03:48;22.58;;;11.63;;
6133;SDS011;3098;42.678;23.364;2023-07-08T03:06:16;25.50;;;11.48;;
6133;SDS011;3098;42.678;23.364;2023-07-08T03:08:43;19.30;;;11.35;;
6133;SDS011;3098;42.678;23.364;2023-07-08T03:11:10;18.95;;;10.50;;
6133;SDS011;3098;42.678;23.364;2023-07-08T03:13:38;18.88;;;11.52;;
6133;SDS011;3098;42.678;23.364;2023-07-08T03:16:05;17.55;;;10.90;;
6133;SDS011;3098;42.678;23.364;2023-07-08T03:18:39;16.70;;;10.35;;
6133;SDS011;3098;42.678;23.364;2023-07-08T03:21:11;17.20;;;11.20;;
6133;SDS011;3098;42.678;23.364;2023-07-08T03:23:39;16.15;;;10.88;;
6133;SDS011;3098;42.678;23.364;2023-07-08T03:26:06;15.23;;;10.68;;
6133;SDS011;3098;42.678;23.364;2023-07-08T03:28:33;18.50;;;10.85;;
6133;SDS011;3098;42.678;23.364;2023-07-08T03:31:00;14.73;;;10.57;;
6133;SDS011;3098;42.678;23.364;2023-07-08T03:33:27;14.32;;;9.93;;
6133;SDS011;3098;42.678;23.364;2023-07-08T03:35:56;13.60;;;9.48;;
6133;SDS011;3098;42.678;23.364;2023-07-08T03:38:23;15.50;;;9.43;;
6133;SDS011;3098;42.678;23.364;2023-07-08T03:40:50;16.63;;;8.77;;
6133;SDS011;3098;42.678;23.364;2023-07-08T03:43:17;13.10;;;8.70;;
6133;SDS011;3098;42.678;23.364;2023-07-08T03:45:44;12.55;;;8.23;;
6133;SDS011;3098;42.678;23.364;2023-07-08T03:48:11;13.60;;;8.57;;
6133;SDS011;3098;42.678;23.364;2023-07-08T03:50:39;11.23;;;7.15;;
6133;SDS011;3098;42.678;23.364;2023-07-08T03:53:07;13.00;;;7.57;;
6133;SDS011;3098;42.678;23.364;2023-07-08T03:55:35;11.85;;;7.68;;
6133;SDS011;3098;42.678;23.364;2023-07-08T03:58:02;14.77;;;7.22;;
6133;SDS011;3098;42.678;23.364;2023-07-08T04:00:29;13.20;;;6.78;;
6133;SDS011;3098;42.678;23.364;2023-07-08T04:02:56;9.82;;;7.28;;
6133;SDS011;3098;42.678;23.364;2023-07-08T04:05:23;12.88;;;6.75;;
6133;SDS011;3098;42.678;23.364;2023-07-08T04:07:50;13.48;;;7.35;;
6133;SDS011;3098;42.678;23.364;2023-07-08T04:10:19;14.50;;;6.78;;
6133;SDS011;3098;42.678;23.364;2023-07-08T04:12:45;12.00;;;8.35;;
6133;SDS011;3098;42.678;23.364;2023-07-08T04:15:12;13.75;;;6.68;;
6133;SDS011;3098;42.678;23.364;2023-07-08T04:17:41;11.18;;;6.63;;
6133;SDS011;3098;42.678;23.364;2023-07-08T04:20:13;9.05;;;5.68;;
6133;SDS011;3098;42.678;23.364;2023-07-08T04:22:44;9.93;;;6.28;;
6133;SDS011;3098;42.678;23.364;2023-07-08T04:25:12;10.85;;;7.20;;
6133;SDS011;3098;42.678;23.364;2023-07-08T04:27:41;12.20;;;7.60;;
6133;SDS011;3098;42.678;23.364;2023-07-08T04:30:09;13.35;;;8.57;;
6133;SDS011;3098;42.678;23.364;2023-07-08T04:32:45;8.70;;;6.20;;
6133;SDS011;3098;42.678;23.364;2023-07-08T04:35:12;9.73;;;6.68;;
6133;SDS011;3098;42.678;23.364;2023-07-08T04:37:39;9.18;;;6.30;;
6133;SDS011;3098;42.678;23.364;2023-07-08T04:40:07;11.57;;;6.88;;
6133;SDS011;3098;42.678;23.364;2023-07-08T04:42:45;11.90;;;6.65;;
6133;SDS011;3098;42.678;23.364;2023-07-08T04:45:14;13.75;;;6.93;;
6133;SDS011;3098;42.678;23.364;2023-07-08T04:47:42;9.45;;;6.70;;
6133;SDS011;3098;42.678;23.364;2023-07-08T04:50:12;9.98;;;6.82;;
6133;SDS011;3098;42.678;23.364;2023-07-08T04:52:39;16.02;;;8.25;;
6133;SDS011;3098;42.678;23.364;2023-07-08T04:55:06;11.40;;;7.63;;
6133;SDS011;3098;42.678;23.364;2023-07-08T04:57:35;11.02;;;7.10;;
6133;SDS011;3098;42.678;23.364;2023-07-08T05:00:04;10.45;;;6.85;;
6133;SDS011;3098;42.678;23.364;2023-07-08T05:02:34;12.65;;;6.78;;
6133;SDS011;3098;42.678;23.364;2023-07-08T05:05:01;11.95;;;7.22;;
6133;SDS011;3098;42.678;23.364;2023-07-08T05:07:28;11.25;;;6.70;;
6133;SDS011;3098;42.678;23.364;2023-07-08T05:09:55;12.00;;;7.53;;
6133;SDS011;3098;42.678;23.364;2023-07-08T05:12:22;9.10;;;6.40;;
6133;SDS011;3098;42.678;23.364;2023-07-08T05:14:49;9.95;;;6.47;;
6133;SDS011;3098;42.678;23.364;2023-07-08T05:17:18;12.75;;;6.57;;
6133;SDS011;3098;42.678;23.364;2023-07-08T05:19:46;9.82;;;6.55;;
6133;SDS011;3098;42.678;23.364;2023-07-08T05:22:16;9.02;;;6.38;;
6133;SDS011;3098;42.678;23.364;2023-07-08T05:24:43;8.43;;;6.20;;
6133;SDS011;3098;42.678;23.364;2023-07-08T05:27:10;10.27;;;6.30;;
6133;SDS011;3098;42.678;23.364;2023-07-08T05:29:38;9.48;;;5.88;;
6133;SDS011;3098;42.678;23.364;2023-07-08T05:32:06;10.18;;;6.47;;
6133;SDS011;3098;42.678;23.364;2023-07-08T05:34:35;8.50;;;5.90;;
6133;SDS011;3098;42.678;23.364;2023-07-08T05:37:02;8.98;;;6.57;;
6133;SDS011;3098;42.678;23.364;2023-07-08T05:39:29;15.05;;;6.13;;
6133;SDS011;3098;42.678;23.364;2023-07-08T05:41:57;9.75;;;6.43;;
6133;SDS011;3098;42.678;23.364;2023-07-08T05:44:24;7.50;;;5.82;;
6133;SDS011;3098;42.678;23.364;2023-07-08T05:46:51;10.18;;;5.93;;
6133;SDS011;3098;42.678;23.364;2023-07-08T05:49:18;8.93;;;6.43;;
6133;SDS011;3098;42.678;23.364;2023-07-08T05:51:47;11.50;;;6.63;;
6133;SDS011;3098;42.678;23.364;2023-07-08T05:54:14;9.85;;;6.53;;
6133;SDS011;3098;42.678;23.364;2023-07-08T05:56:41;12.40;;;6.93;;
6133;SDS011;3098;42.678;23.364;2023-07-08T05:59:08;9.63;;;6.05;;
6133;SDS011;3098;42.678;23.364;2023-07-08T06:01:37;10.45;;;6.10;;
6133;SDS011;3098;42.678;23.364;2023-07-08T06:04:05;8.75;;;5.72;;
6133;SDS011;3098;42.678;23.364;2023-07-08T06:06:32;8.98;;;6.50;;
6133;SDS011;3098;42.678;23.364;2023-07-08T06:09:00;8.48;;;6.07;;
6133;SDS011;3098;42.678;23.364;2023-07-08T06:11:27;10.55;;;7.28;;
6133;SDS011;3098;42.678;23.364;2023-07-08T06:13:54;10.65;;;7.10;;
6133;SDS011;3098;42.678;23.364;2023-07-08T06:16:21;11.27;;;7.15;;
6133;SDS011;3098;42.678;23.364;2023-07-08T06:18:47;11.75;;;6.93;;
6133;SDS011;3098;42.678;23.364;2023-07-08T06:21:14;8.50;;;6.00;;
6133;SDS011;3098;42.678;23.364;2023-07-08T06:23:42;10.85;;;6.25;;
6133;SDS011;3098;42.678;23.364;2023-07-08T06:26:11;10.50;;;6.40;;
6133;SDS011;3098;42.678;23.364;2023-07-08T06:28:38;9.88;;;6.65;;
6133;SDS011;3098;42.678;23.364;2023-07-08T06:31:05;9.52;;;6.75;;
6133;SDS011;3098;42.678;23.364;2023-07-08T06:33:33;9.50;;;6.32;;
6133;SDS011;3098;42.678;23.364;2023-07-08T06:35:59;9.07;;;6.45;;
6133;SDS011;3098;42.678;23.364;2023-07-08T06:38:27;10.60;;;6.78;;
6133;SDS011;3098;42.678;23.364;2023-07-08T06:40:54;12.23;;;6.45;;
6133;SDS011;3098;42.678;23.364;2023-07-08T06:43:22;10.10;;;5.85;;
6133;SDS011;3098;42.678;23.364;2023-07-08T06:45:49;9.73;;;6.35;;
6133;SDS011;3098;42.678;23.364;2023-07-08T06:48:16;9.80;;;6.05;;
6133;SDS011;3098;42.678;23.364;2023-07-08T06:50:45;8.80;;;6.00;;
6133;SDS011;3098;42.678;23.364;2023-07-08T06:53:13;11.45;;;6.63;;
6133;SDS011;3098;42.678;23.364;2023-07-08T06:55:40;17.38;;;6.25;;
6133;SDS011;3098;42.678;23.364;2023-07-08T06:58:07;7.38;;;5.25;;
6133;SDS011;3098;42.678;23.364;2023-07-08T07:00:36;10.25;;;6.15;;
6133;SDS011;3098;42.678;23.364;2023-07-08T07:03:03;8.55;;;5.50;;
6133;SDS011;3098;42.678;23.364;2023-07-08T07:05:30;9.13;;;6.20;;
6133;SDS011;3098;42.678;23.364;2023-07-08T07:07:57;11.23;;;5.57;;
6133;SDS011;3098;42.678;23.364;2023-07-08T07:10:24;11.15;;;5.30;;
6133;SDS011;3098;42.678;23.364;2023-07-08T07:12:51;15.07;;;5.70;;
6133;SDS011;3098;42.678;23.364;2023-07-08T07:15:18;16.50;;;5.28;;
6133;SDS011;3098;42.678;23.364;2023-07-08T07:17:48;7.28;;;5.28;;
6133;SDS011;3098;42.678;23.364;2023-07-08T07:20:15;9.70;;;5.75;;
6133;SDS011;3098;42.678;23.364;2023-07-08T07:22:43;12.90;;;5.47;;
6133;SDS011;3098;42.678;23.364;2023-07-08T07:25:10;13.50;;;5.97;;
6133;SDS011;3098;42.678;23.364;2023-07-08T07:27:37;8.70;;;5.20;;
6133;SDS011;3098;42.678;23.364;2023-07-08T07:30:05;9.55;;;6.55;;
6133;SDS011;3098;42.678;23.364;2023-07-08T07:32:32;8.23;;;5.32;;
6133;SDS011;3098;42.678;23.364;2023-07-08T07:35:01;10.07;;;6.20;;
6133;SDS011;3098;42.678;23.364;2023-07-08T07:37:29;8.77;;;5.57;;
6133;SDS011;3098;42.678;23.364;2023-07-08T07:39:56;13.25;;;6.43;;
6133;SDS011;3098;42.678;23.364;2023-07-08T07:42:23;8.48;;;6.03;;
6133;SDS011;3098;42.678;23.364;2023-07-08T07:44:53;8.80;;;5.95;;
6133;SDS011;3098;42.678;23.364;2023-07-08T07:47:20;7.75;;;5.85;;
6133;SDS011;3098;42.678;23.364;2023-07-08T07:49:47;7.93;;;5.53;;
6133;SDS011;3098;42.678;23.364;2023-07-08T07:52:15;8.93;;;5.45;;
6133;SDS011;3098;42.678;23.364;2023-07-08T07:54:48;9.80;;;5.82;;
6133;SDS011;3098;42.678;23.364;2023-07-08T07:57:15;9.10;;;5.70;;
6133;SDS011;3098;42.678;23.364;2023-07-08T07:59:42;7.55;;;5.22;;
6133;SDS011;3098;42.678;23.364;2023-07-08T08:02:09;9.60;;;5.20;;
6133;SDS011;3098;42.678;23.364;2023-07-08T08:04:37;7.95;;;5.35;;
6133;SDS011;3098;42.678;23.364;2023-07-08T08:07:04;7.05;;;5.45;;
6133;SDS011;3098;42.678;23.364;2023-07-08T08:09:33;9.15;;;5.35;;
6133;SDS011;3098;42.678;23.364;2023-07-08T08:12:01;6.88;;;5.05;;
6133;SDS011;3098;42.678;23.364;2023-07-08T08:14:28;8.32;;;5.15;;
6133;SDS011;3098;42.678;23.364;2023-07-08T08:16:56;9.32;;;6.00;;
6133;SDS011;3098;42.678;23.364;2023-07-08T08:19:23;8.85;;;5.10;;
6133;SDS011;3098;42.678;23.364;2023-07-08T08:21:51;7.15;;;5.20;;
6133;SDS011;3098;42.678;23.364;2023-07-08T08:24:18;9.75;;;5.80;;
6133;SDS011;3098;42.678;23.364;2023-07-08T08:26:46;6.70;;;5.50;;
6133;SDS011;3098;42.678;23.364;2023-07-08T08:29:13;6.82;;;4.72;;
6133;SDS011;3098;42.678;23.364;2023-07-08T08:31:41;6.80;;;5.20;;
6133;SDS011;3098;42.678;23.364;2023-07-08T08:34:08;8.25;;;5.63;;
6133;SDS011;3098;42.678;23.364;2023-07-08T08:36:35;9.00;;;5.47;;
6133;SDS011;3098;42.678;23.364;2023-07-08T08:39:02;9.90;;;5.43;;
6133;SDS011;3098;42.678;23.364;2023-07-08T08:41:29;7.75;;;5.70;;
6133;SDS011;3098;42.678;23.364;2023-07-08T08:43:59;8.52;;;5.38;;
6133;SDS011;3098;42.678;23.364;2023-07-08T08:46:29;8.70;;;5.10;;
6133;SDS011;3098;42.678;23.364;2023-07-08T08:49:05;8.65;;;5.97;;
6133;SDS011;3098;42.678;23.364;2023-07-08T08:51:51;12.18;;;5.85;;
6133;SDS011;3098;42.678;23.364;2023-07-08T08:54:18;11.75;;;5.75;;
6133;SDS011;3098;42.678;23.364;2023-07-08T08:56:48;9.27;;;5.07;;
6133;SDS011;3098;42.678;23.364;2023-07-08T08:59:26;8.52;;;5.80;;
6133;SDS011;3098;42.678;23.364;2023-07-08T09:01:58;14.75;;;5.43;;
6133;SDS011;3098;42.678;23.364;2023-07-08T09:04:28;7.88;;;5.63;;
6133;SDS011;3098;42.678;23.364;2023-07-08T09:07:01;8.38;;;6.05;;
6133;SDS011;3098;42.678;23.364;2023-07-08T09:09:40;9.68;;;5.07;;
6133;SDS011;3098;42.678;23.364;2023-07-08T09:12:14;9.10;;;5.32;;
6133;SDS011;3098;42.678;23.364;2023-07-08T09:14:48;6.90;;;5.00;;
6133;SDS011;3098;42.678;23.364;2023-07-08T09:17:17;7.53;;;5.30;;
6133;SDS011;3098;42.678;23.364;2023-07-08T09:19:50;11.30;;;5.13;;
6133;SDS011;3098;42.678;23.364;2023-07-08T09:22:31;6.75;;;5.18;;
6133;SDS011;3098;42.678;23.364;2023-07-08T09:25:04;6.93;;;5.07;;
6133;SDS011;3098;42.678;23.364;2023-07-08T09:27:40;9.23;;;5.82;;
6133;SDS011;3098;42.678;23.364;2023-07-08T09:30:10;9.60;;;5.53;;
6133;SDS011;3098;42.678;23.364;2023-07-08T09:32:40;8.13;;;5.70;;
6133;SDS011;3098;42.678;23.364;2023-07-08T09:35:09;9.43;;;5.80;;
6133;SDS011;3098;42.678;23.364;2023-07-08T09:37:44;9.35;;;5.10;;
6133;SDS011;3098;42.678;23.364;2023-07-08T09:40:15;7.13;;;5.53;;
6133;SDS011;3098;42.678;23.364;2023-07-08T09:42:44;7.95;;;5.65;;
6133;SDS011;3098;42.678;23.364;2023-07-08T09:45:17;7.57;;;5.53;;
6133;SDS011;3098;42.678;23.364;2023-07-08T09:47:46;6.63;;;4.80;;
6133;SDS011;3098;42.678;23.364;2023-07-08T09:50:18;5.88;;;4.72;;
6133;SDS011;3098;42.678;23.364;2023-07-08T09:52:47;5.97;;;4.32;;
6133;SDS011;3098;42.678;23.364;2023-07-08T09:55:15;7.43;;;5.15;;
6133;SDS011;3098;42.678;23.364;2023-07-08T09:57:43;10.95;;;4.82;;
6133;SDS011;3098;42.678;23.364;2023-07-08T10:00:13;8.23;;;4.20;;
6133;SDS011;3098;42.678;23.364;2023-07-08T10:02:43;8.43;;;4.47;;
6133;SDS011;3098;42.678;23.364;2023-07-08T10:05:14;6.28;;;4.57;;
6133;SDS011;3098;42.678;23.364;2023-07-08T10:07:44;6.68;;;4.63;;
6133;SDS011;3098;42.678;23.364;2023-07-08T10:10:12;5.78;;;4.30;;
6133;SDS011;3098;42.678;23.364;2023-07-08T10:12:44;5.32;;;4.55;;
6133;SDS011;3098;42.678;23.364;2023-07-08T10:15:22;10.85;;;4.80;;
6133;SDS011;3098;42.678;23.364;2023-07-08T10:17:55;6.82;;;4.22;;
6133;SDS011;3098;42.678;23.364;2023-07-08T10:20:23;8.55;;;4.60;;
6133;SDS011;3098;42.678;23.364;2023-07-08T10:23:06;10.35;;;4.57;;
6133;SDS011;3098;42.678;23.364;2023-07-08T10:25:53;5.75;;;4.60;;
6133;SDS011;3098;42.678;23.364;2023-07-08T10:28:33;7.28;;;4.05;;
6133;SDS011;3098;42.678;23.364;2023-07-08T10:31:16;7.68;;;4.22;;
6133;SDS011;3098;42.678;23.364;2023-07-08T10:34:06;4.82;;;3.80;;
6133;SDS011;3098;42.678;23.364;2023-07-08T10:36:48;6.20;;;4.40;;
6133;SDS011;3098;42.678;23.364;2023-07-08T10:39:35;9.00;;;5.53;;
6133;SDS011;3098;42.678;23.364;2023-07-08T10:42:23;5.97;;;4.00;;
6133;SDS011;3098;42.678;23.364;2023-07-08T10:45:09;6.18;;;4.35;;
6133;SDS011;3098;42.678;23.364;2023-07-08T10:47:49;6.25;;;4.40;;
6133;SDS011;3098;42.678;23.364;2023-07-08T10:50:45;9.82;;;4.32;;
6133;SDS011;3098;42.678;23.364;2023-07-08T10:53:25;4.82;;;4.25;;
6133;SDS011;3098;42.678;23.364;2023-07-08T10:56:06;5.88;;;3.90;;
6133;SDS011;3098;42.678;23.364;2023-07-08T10:58:47;4.95;;;3.85;;
6133;SDS011;3098;42.678;23.364;2023-07-08T11:01:32;6.88;;;3.85;;
6133;SDS011;3098;42.678;23.364;2023-07-08T11:04:07;5.95;;;3.42;;
6133;SDS011;3098;42.678;23.364;2023-07-08T11:06:50;5.80;;;4.30;;
6133;SDS011;3098;42.678;23.364;2023-07-08T11:09:22;8.65;;;4.18;;
6133;SDS011;3098;42.678;23.364;2023-07-08T11:11:55;8.88;;;4.00;;
6133;SDS011;3098;42.678;23.364;2023-07-08T11:14:26;9.27;;;4.32;;
6133;SDS011;3098;42.678;23.364;2023-07-08T11:17:05;4.88;;;4.03;;
6133;SDS011;3098;42.678;23.364;2023-07-08T11:19:42;15.43;;;4.82;;
6133;SDS011;3098;42.678;23.364;2023-07-08T11:22:16;6.05;;;4.47;;
6133;SDS011;3098;42.678;23.364;2023-07-08T11:24:46;6.30;;;4.40;;
6133;SDS011;3098;42.678;23.364;2023-07-08T11:27:16;5.22;;;4.18;;
6133;SDS011;3098;42.678;23.364;2023-07-08T11:29:50;5.93;;;4.05;;
6133;SDS011;3098;42.678;23.364;2023-07-08T11:32:21;10.32;;;4.50;;
6133;SDS011;3098;42.678;23.364;2023-07-08T11:34:54;5.80;;;4.32;;
6133;SDS011;3098;42.678;23.364;2023-07-08T11:37:25;6.03;;;4.22;;
6133;SDS011;3098;42.678;23.364;2023-07-08T11:39:53;6.45;;;4.30;;
6133;SDS011;3098;42.678;23.364;2023-07-08T11:42:22;4.85;;;4.07;;
6133;SDS011;3098;42.678;23.364;2023-07-08T11:44:52;5.43;;;4.10;;
6133;SDS011;3098;42.678;23.364;2023-07-08T11:47:24;6.22;;;4.20;;
6133;SDS011;3098;42.678;23.364;2023-07-08T11:50:00;5.60;;;3.65;;
6133;SDS011;3098;42.678;23.364;2023-07-08T11:52:30;5.68;;;4.00;;
6133;SDS011;3098;42.678;23.364;2023-07-08T11:55:00;7.22;;;4.20;;
6133;SDS011;3098;42.678;23.364;2023-07-08T11:57:40;8.15;;;4.80;;
6133;SDS011;3098;42.678;23.364;2023-07-08T12:00:17;5.57;;;4.13;;
6133;SDS011;3098;42.678;23.364;2023-07-08T12:02:49;9.93;;;4.65;;
6133;SDS011;3098;42.678;23.364;2023-07-08T12:05:28;9.30;;;3.97;;
6133;SDS011;3098;42.678;23.364;2023-07-08T12:07:59;6.40;;;4.05;;
6133;SDS011;3098;42.678;23.364;2023-07-08T12:10:31;9.18;;;4.13;;
6133;SDS011;3098;42.678;23.364;2023-07-08T12:13:00;5.72;;;4.15;;
6133;SDS011;3098;42.678;23.364;2023-07-08T12:15:29;6.25;;;4.18;;
6133;SDS011;3098;42.678;23.364;2023-07-08T12:17:59;6.70;;;4.28;;
6133;SDS011;3098;42.678;23.364;2023-07-08T12:20:29;9.07;;;5.22;;
6133;SDS011;3098;42.678;23.364;2023-07-08T12:22:59;6.90;;;4.13;;
6133;SDS011;3098;42.678;23.364;2023-07-08T12:25:27;6.63;;;3.97;;
6133;SDS011;3098;42.678;23.364;2023-07-08T12:27:57;8.02;;;5.13;;
6133;SDS011;3098;42.678;23.364;2023-07-08T12:30:25;6.25;;;3.97;;
6133;SDS011;3098;42.678;23.364;2023-07-08T12:32:55;6.13;;;3.97;;
6133;SDS011;3098;42.678;23.364;2023-07-08T12:35:25;6.53;;;4.25;;
6133;SDS011;3098;42.678;23.364;2023-07-08T12:37:55;7.20;;;3.65;;
6133;SDS011;3098;42.678;23.364;2023-07-08T12:40:27;5.20;;;3.67;;
6133;SDS011;3098;42.678;23.364;2023-07-08T12:42:56;4.72;;;3.47;;
6133;SDS011;3098;42.678;23.364;2023-07-08T12:45:31;5.30;;;3.58;;
6133;SDS011;3098;42.678;23.364;2023-07-08T12:47:59;8.55;;;3.40;;
6133;SDS011;3098;42.678;23.364;2023-07-08T12:50:27;6.90;;;3.40;;
6133;SDS011;3098;42.678;23.364;2023-07-08T12:52:54;6.78;;;3.70;;
6133;SDS011;3098;42.678;23.364;2023-07-08T12:55:21;11.45;;;3.88;;
6133;SDS011;3098;42.678;23.364;2023-07-08T12:57:51;9.82;;;4.30;;
6133;SDS011;3098;42.678;23.364;2023-07-08T13:00:21;5.65;;;3.40;;
6133;SDS011;3098;42.678;23.364;2023-07-08T13:02:53;6.30;;;3.90;;
6133;SDS011;3098;42.678;23.364;2023-07-08T13:05:26;6.32;;;3.53;;
6133;SDS011;3098;42.678;23.364;2023-07-08T13:07:54;6.85;;;3.97;;
6133;SDS011;3098;42.678;23.364;2023-07-08T13:10:23;7.15;;;3.60;;
6133;SDS011;3098;42.678;23.364;2023-07-08T13:12:53;6.05;;;3.45;;
6133;SDS011;3098;42.678;23.364;2023-07-08T13:15:24;4.75;;;3.10;;
6133;SDS011;3098;42.678;23.364;2023-07-08T13:17:58;4.95;;;3.20;;
6133;SDS011;3098;42.678;23.364;2023-07-08T13:20:26;4.00;;;2.88;;
6133;SDS011;3098;42.678;23.364;2023-07-08T13:22:55;4.32;;;3.10;;
6133;SDS011;3098;42.678;23.364;2023-07-08T13:25:27;9.32;;;3.60;;
6133;SDS011;3098;42.678;23.364;2023-07-08T13:27:59;5.63;;;3.25;;
6133;SDS011;3098;42.678;23.364;2023-07-08T13:30:29;4.72;;;3.13;;
6133;SDS011;3098;42.678;23.364;2023-07-08T13:32:59;5.57;;;3.15;;
6133;SDS011;3098;42.678;23.364;2023-07-08T13:35:36;4.22;;;2.90;;
6133;SDS011;3098;42.678;23.364;2023-07-08T13:38:04;6.40;;;3.35;;
6133;SDS011;3098;42.678;23.364;2023-07-08T13:40:32;3.95;;;2.97;;
6133;SDS011;3098;42.678;23.364;2023-07-08T13:43:01;5.32;;;3.35;;
6133;SDS011;3098;42.678;23.364;2023-07-08T13:45:30;6.60;;;3.35;;
6133;SDS011;3098;42.678;23.364;2023-07-08T13:48:03;4.90;;;3.50;;
6133;SDS011;3098;42.678;23.364;2023-07-08T13:50:42;10.45;;;3.60;;
6133;SDS011;3098;42.678;23.364;2023-07-08T13:53:17;6.75;;;3.55;;
6133;SDS011;3098;42.678;23.364;2023-07-08T13:55:47;9.27;;;3.22;;
6133;SDS011;3098;42.678;23.364;2023-07-08T13:58:28;4.38;;;3.03;;
6133;SDS011;3098;42.678;23.364;2023-07-08T14:00:57;5.35;;;2.80;;
6133;SDS011;3098;42.678;23.364;2023-07-08T14:03:31;8.25;;;3.42;;
6133;SDS011;3098;42.678;23.364;2023-07-08T14:05:59;4.97;;;2.85;;
6133;SDS011;3098;42.678;23.364;2023-07-08T14:08:25;5.57;;;3.47;;
6133;SDS011;3098;42.678;23.364;2023-07-08T14:10:52;6.35;;;3.15;;
6133;SDS011;3098;42.678;23.364;2023-07-08T14:13:19;5.63;;;3.20;;
6133;SDS011;3098;42.678;23.364;2023-07-08T14:15:48;5.30;;;3.47;;
6133;SDS011;3098;42.678;23.364;2023-07-08T14:18:15;6.68;;;3.20;;
6133;SDS011;3098;42.678;23.364;2023-07-08T14:20:41;4.25;;;3.03;;
6133;SDS011;3098;42.678;23.364;2023-07-08T14:23:09;6.18;;;3.47;;
6133;SDS011;3098;42.678;23.364;2023-07-08T14:25:38;12.70;;;2.97;;
6133;SDS011;3098;42.678;23.364;2023-07-08T14:28:05;7.43;;;3.70;;
6133;SDS011;3098;42.678;23.364;2023-07-08T14:30:33;5.10;;;3.03;;
6133;SDS011;3098;42.678;23.364;2023-07-08T14:33:07;5.38;;;3.40;;
6133;SDS011;3098;42.678;23.364;2023-07-08T14:35:35;5.20;;;3.30;;
6133;SDS011;3098;42.678;23.364;2023-07-08T14:38:02;5.13;;;3.08;;
6133;SDS011;3098;42.678;23.364;2023-07-08T14:40:32;4.75;;;3.00;;
6133;SDS011;3098;42.678;23.364;2023-07-08T14:43:03;4.32;;;2.92;;
6133;SDS011;3098;42.678;23.364;2023-07-08T14:45:33;4.57;;;3.15;;
6133;SDS011;3098;42.678;23.364;2023-07-08T14:48:09;5.10;;;3.42;;
6133;SDS011;3098;42.678;23.364;2023-07-08T14:50:37;5.53;;;3.35;;
6133;SDS011;3098;42.678;23.364;2023-07-08T14:53:04;7.72;;;2.80;;
6133;SDS011;3098;42.678;23.364;2023-07-08T14:55:31;5.55;;;2.80;;
6133;SDS011;3098;42.678;23.364;2023-07-08T14:57:59;4.70;;;2.80;;
6133;SDS011;3098;42.678;23.364;2023-07-08T15:00:28;6.05;;;2.90;;
6133;SDS011;3098;42.678;23.364;2023-07-08T15:02:55;5.25;;;3.20;;
6133;SDS011;3098;42.678;23.364;2023-07-08T15:05:24;8.13;;;3.45;;
6133;SDS011;3098;42.678;23.364;2023-07-08T15:07:53;6.40;;;3.47;;
6133;SDS011;3098;42.678;23.364;2023-07-08T15:10:23;4.85;;;3.03;;